createdAt,value
2022-10-25T00:01:57.478Z,14.20
2022-10-25T00:04:24.178Z,14.20
2022-10-25T00:06:50.790Z,14.20
2022-10-25T00:09:17.449Z,14.20
2022-10-25T00:11:44.108Z,14.20
2022-10-25T00:14:15.825Z,14.20
2022-10-25T00:16:42.507Z,14.10
2022-10-25T00:19:09.200Z,14.20
2022-10-25T00:21:35.824Z,14.10
2022-10-25T00:24:03.322Z,14.10
2022-10-25T00:26:29.979Z,14.10
2022-10-25T00:28:56.696Z,14.10
2022-10-25T00:31:24.200Z,14.10
2022-10-25T00:33:50.864Z,14.10
2022-10-25T00:36:20.714Z,14.10
2022-10-25T00:38:48.195Z,14.00
2022-10-25T00:41:17.790Z,14.00
2022-10-25T00:43:47.718Z,14.00
2022-10-25T00:46:25.695Z,14.00
2022-10-25T00:49:03.431Z,14.00
2022-10-25T00:51:43.787Z,13.90
2022-10-25T00:54:12.904Z,13.90
2022-10-25T00:56:42.660Z,13.90
2022-10-25T00:59:12.363Z,13.80
2022-10-25T01:01:39.317Z,13.80
2022-10-25T01:04:11.360Z,13.80
2022-10-25T01:06:38.882Z,13.80
2022-10-25T01:09:07.843Z,13.80
2022-10-25T01:11:36.088Z,13.70
2022-10-25T01:14:02.767Z,13.70
2022-10-25T01:16:56.043Z,13.70
2022-10-25T01:19:58.017Z,13.70
2022-10-25T01:22:35.469Z,13.70
2022-10-25T01:25:14.080Z,13.70
2022-10-25T01:27:59.466Z,13.70
2022-10-25T01:30:50.513Z,13.70
2022-10-25T01:33:27.470Z,13.70
2022-10-25T01:36:06.163Z,13.70
2022-10-25T01:38:41.839Z,13.70
2022-10-25T01:41:35.379Z,13.70
2022-10-25T01:44:27.007Z,13.70
2022-10-25T01:47:01.478Z,13.70
2022-10-25T01:49:43.451Z,13.70
2022-10-25T01:52:10.335Z,13.70
2022-10-25T01:54:37.057Z,13.70
2022-10-25T01:57:08.900Z,13.70
2022-10-25T01:59:50.635Z,13.70
2022-10-25T02:02:34.082Z,13.70
2022-10-25T02:05:08.216Z,13.70
2022-10-25T02:07:41.614Z,13.80
2022-10-25T02:10:10.261Z,13.70
2022-10-25T02:13:19.971Z,13.80
2022-10-25T02:16:03.057Z,13.80
2022-10-25T02:18:33.897Z,13.80
2022-10-25T02:21:02.879Z,13.70
2022-10-25T02:23:31.996Z,13.70
2022-10-25T02:25:59.296Z,13.80
2022-10-25T02:28:32.560Z,13.70
2022-10-25T02:31:00.384Z,13.70
2022-10-25T02:33:29.875Z,13.80
2022-10-25T02:36:22.372Z,13.70
2022-10-25T02:38:51.495Z,13.70
2022-10-25T02:45:18.155Z,13.70
2022-10-25T02:47:45.313Z,13.70
2022-10-25T02:50:12.721Z,13.70
2022-10-25T02:52:39.318Z,13.70
2022-10-25T02:55:06.534Z,13.70
2022-10-25T02:57:37.899Z,13.70
2022-10-25T03:00:06.544Z,13.70
2022-10-25T03:02:33.247Z,13.70
2022-10-25T03:05:00.007Z,13.70
2022-10-25T03:07:26.683Z,13.70
2022-10-25T03:09:53.331Z,13.70
2022-10-25T03:12:19.935Z,13.70
2022-10-25T03:14:46.548Z,13.70
2022-10-25T03:17:13.177Z,13.70
2022-10-25T03:19:39.763Z,13.70
2022-10-25T03:22:06.378Z,13.70
2022-10-25T03:24:32.986Z,13.70
2022-10-25T03:27:00.462Z,13.70
2022-10-25T03:29:27.158Z,13.70
2022-10-25T03:31:54.032Z,13.70
2022-10-25T03:34:20.688Z,13.70
2022-10-25T03:36:47.312Z,13.70
2022-10-25T03:39:14.024Z,13.70
2022-10-25T03:41:40.636Z,13.70
2022-10-25T03:44:07.241Z,13.60
2022-10-25T03:46:33.934Z,13.60
2022-10-25T03:49:00.532Z,13.60
2022-10-25T03:51:27.191Z,13.60
2022-10-25T03:53:53.809Z,13.60
2022-10-25T03:56:20.441Z,13.60
2022-10-25T03:58:47.029Z,13.60
2022-10-25T04:01:13.852Z,13.60
2022-10-25T04:03:40.591Z,13.60
2022-10-25T04:06:07.430Z,13.60
2022-10-25T04:08:34.197Z,13.60
2022-10-25T04:11:00.918Z,13.60
2022-10-25T04:13:28.079Z,13.50
2022-10-25T04:15:54.729Z,13.60
2022-10-25T04:18:21.534Z,13.50
2022-10-25T04:20:48.162Z,13.50
2022-10-25T04:23:14.801Z,13.50
2022-10-25T04:25:41.871Z,13.50
2022-10-25T04:28:08.517Z,13.50
2022-10-25T04:30:37.969Z,13.50
2022-10-25T04:33:05.743Z,13.50
2022-10-25T04:35:32.382Z,13.40
2022-10-25T04:37:59.124Z,13.40
2022-10-25T04:40:25.892Z,13.40
2022-10-25T04:42:52.610Z,13.30
2022-10-25T04:45:19.268Z,13.30
2022-10-25T04:47:46.030Z,13.30
2022-10-25T04:50:12.804Z,13.30
2022-10-25T04:52:39.599Z,13.30
2022-10-25T04:55:06.456Z,13.30
2022-10-25T04:57:33.177Z,13.20
2022-10-25T04:59:59.825Z,13.20
2022-10-25T05:02:26.543Z,13.20
2022-10-25T05:04:53.251Z,13.20
2022-10-25T05:07:21.023Z,13.20
2022-10-25T05:09:48.489Z,13.20
2022-10-25T05:12:15.779Z,13.20
2022-10-25T05:14:42.473Z,13.20
2022-10-25T05:17:09.474Z,13.10
2022-10-25T05:19:36.140Z,13.20
2022-10-25T05:22:04.202Z,13.10
2022-10-25T05:24:30.881Z,13.10
2022-10-25T05:26:57.573Z,13.10
2022-10-25T05:29:24.279Z,13.10
2022-10-25T05:31:50.929Z,13.10
2022-10-25T05:34:17.630Z,13.10
2022-10-25T05:36:44.441Z,13.10
2022-10-25T05:39:11.086Z,13.10
2022-10-25T05:41:37.740Z,13.10
2022-10-25T05:44:05.659Z,13.10
2022-10-25T05:46:32.393Z,13.10
2022-10-25T05:48:59.894Z,13.10
2022-10-25T05:51:36.280Z,13.00
2022-10-25T05:54:10.027Z,13.00
2022-10-25T05:56:37.664Z,13.00
2022-10-25T05:59:11.574Z,13.00
2022-10-25T06:01:40.784Z,13.00
2022-10-25T06:04:08.442Z,13.00
2022-10-25T06:06:36.284Z,13.00
2022-10-25T06:09:03.875Z,13.00
2022-10-25T06:11:31.026Z,13.00
2022-10-25T06:13:58.132Z,13.00
2022-10-25T06:16:25.192Z,13.00
2022-10-25T06:18:53.890Z,13.00
2022-10-25T06:21:23.608Z,13.00
2022-10-25T06:23:50.305Z,13.00
2022-10-25T06:26:19.440Z,13.00
2022-10-25T06:28:46.578Z,13.00
2022-10-25T06:31:16.208Z,13.00
2022-10-25T06:33:43.222Z,13.00
2022-10-25T06:36:16.644Z,12.90
2022-10-25T06:38:44.586Z,12.90
2022-10-25T06:41:16.623Z,12.90
2022-10-25T06:43:43.275Z,13.00
2022-10-25T06:46:14.761Z,13.00
2022-10-25T06:48:41.543Z,13.00
2022-10-25T06:51:11.705Z,13.00
2022-10-25T06:53:38.681Z,13.00
2022-10-25T06:56:10.584Z,13.00
2022-10-25T06:58:41.163Z,13.00
2022-10-25T07:01:13.602Z,13.00
2022-10-25T07:03:41.953Z,13.00
2022-10-25T07:06:11.464Z,13.00
2022-10-25T07:08:40.167Z,13.00
2022-10-25T07:11:08.586Z,13.00
2022-10-25T07:13:35.603Z,13.10
2022-10-25T07:16:07.282Z,13.00
2022-10-25T07:18:35.310Z,13.00
2022-10-25T07:21:13.503Z,13.00
2022-10-25T07:23:43.844Z,13.10
2022-10-25T07:26:13.914Z,13.10
2022-10-25T07:28:40.904Z,13.10
2022-10-25T07:31:07.882Z,13.10
2022-10-25T07:33:34.652Z,13.10
2022-10-25T07:36:16.666Z,13.10
2022-10-25T07:38:43.490Z,13.10
2022-10-25T07:41:10.331Z,13.20
2022-10-25T07:43:37.293Z,13.20
2022-10-25T07:46:04.675Z,13.20
2022-10-25T07:48:31.416Z,13.20
2022-10-25T07:50:58.236Z,13.30
2022-10-25T07:53:24.935Z,13.30
2022-10-25T07:55:53.016Z,13.30
2022-10-25T07:58:19.848Z,13.40
2022-10-25T08:00:47.097Z,13.40
2022-10-25T08:03:15.528Z,13.40
2022-10-25T08:05:46.350Z,13.40
2022-10-25T08:08:13.808Z,13.50
2022-10-25T08:10:42.349Z,13.50
2022-10-25T08:13:09.059Z,13.50
2022-10-25T08:15:36.373Z,13.50
2022-10-25T08:18:04.087Z,13.60
2022-10-25T08:20:49.675Z,13.60
2022-10-25T08:23:17.493Z,13.60
2022-10-25T08:25:44.247Z,13.60
2022-10-25T08:28:11.150Z,13.70
2022-10-25T08:30:37.839Z,13.70
2022-10-25T08:33:06.479Z,13.70
2022-10-25T08:35:36.033Z,13.70
2022-10-25T08:38:04.782Z,13.80
2022-10-25T08:40:54.182Z,13.70
2022-10-25T08:43:23.606Z,13.80
2022-10-25T08:45:55.839Z,13.80
2022-10-25T08:48:28.151Z,13.90
2022-10-25T08:51:03.028Z,13.90
2022-10-25T08:53:38.348Z,14.00
2022-10-25T08:56:16.174Z,14.00
2022-10-25T08:58:49.917Z,14.00
2022-10-25T09:01:29.501Z,14.10
2022-10-25T09:03:56.586Z,14.10
2022-10-25T09:06:41.399Z,14.10
2022-10-25T09:09:42.529Z,14.20
2022-10-25T09:12:22.573Z,14.20
2022-10-25T09:15:19.235Z,14.20
2022-10-25T09:17:51.316Z,14.30
2022-10-25T09:20:23.908Z,14.30
2022-10-25T09:23:08.433Z,14.40
2022-10-25T09:25:47.138Z,14.40
2022-10-25T09:28:30.470Z,14.50
2022-10-25T09:30:59.029Z,14.60
2022-10-25T09:33:30.522Z,14.60
2022-10-25T09:35:58.846Z,14.70
2022-10-25T09:38:34.453Z,14.70
2022-10-25T09:41:09.989Z,14.80
2022-10-25T09:43:45.764Z,14.80
2022-10-25T09:46:43.959Z,14.90
2022-10-25T09:49:10.575Z,14.90
2022-10-25T09:51:54.033Z,15.00
2022-10-25T09:54:39.953Z,15.00
2022-10-25T09:57:06.599Z,15.10
2022-10-25T09:59:33.903Z,15.10
2022-10-25T10:02:00.793Z,15.20
2022-10-25T10:04:38.996Z,15.20
2022-10-25T10:07:24.502Z,15.20
2022-10-25T10:09:55.436Z,15.30
2022-10-25T10:13:00.836Z,15.30
2022-10-25T10:15:51.372Z,15.30
2022-10-25T10:18:32.709Z,15.30
2022-10-25T10:21:11.309Z,15.40
2022-10-25T10:23:45.649Z,15.40
2022-10-25T10:26:20.442Z,15.50
2022-10-25T10:28:50.572Z,15.50
2022-10-25T10:31:19.204Z,15.50
2022-10-25T10:33:51.080Z,15.50
2022-10-25T10:36:19.921Z,15.50
2022-10-25T10:38:46.743Z,15.60
2022-10-25T10:41:29.622Z,15.60
2022-10-25T10:44:13.203Z,15.60
2022-10-25T10:46:47.413Z,15.60
2022-10-25T10:49:15.998Z,15.70
2022-10-25T10:51:45.623Z,15.60
2022-10-25T10:54:23.882Z,15.70
2022-10-25T10:57:04.423Z,15.70
2022-10-25T10:59:54.465Z,15.70
2022-10-25T11:02:23.560Z,15.70
2022-10-25T11:04:55.746Z,15.70
2022-10-25T11:07:32.656Z,15.70
2022-10-25T11:10:35.260Z,15.70
2022-10-25T11:13:06.068Z,15.70
2022-10-25T11:15:55.447Z,15.70
2022-10-25T11:18:35.284Z,15.70
2022-10-25T11:21:39.623Z,15.70
2022-10-25T11:24:51.194Z,15.70
2022-10-25T11:27:25.810Z,15.60
2022-10-25T11:30:04.656Z,15.70
2022-10-25T11:33:13.387Z,15.70
2022-10-25T11:35:56.074Z,15.70
2022-10-25T11:38:55.089Z,15.70
2022-10-25T11:41:52.064Z,15.70
2022-10-25T11:44:45.776Z,15.70
2022-10-25T11:47:48.248Z,15.60
2022-10-25T11:50:52.937Z,15.70
2022-10-25T11:53:58.586Z,15.70
2022-10-25T11:56:31.062Z,15.70
2022-10-25T11:59:19.402Z,15.80
2022-10-25T12:01:58.425Z,15.90
2022-10-25T12:04:48.118Z,15.90
2022-10-25T12:07:33.995Z,16.00
2022-10-25T12:10:30.172Z,16.10
2022-10-25T12:13:03.011Z,16.20
2022-10-25T12:15:52.092Z,16.20
2022-10-25T12:18:47.395Z,16.30
2022-10-25T12:21:29.860Z,16.30
2022-10-25T12:23:57.564Z,16.30
2022-10-25T12:26:36.675Z,16.40
2022-10-25T12:29:10.988Z,16.50
2022-10-25T12:31:42.963Z,16.50
2022-10-25T12:34:15.575Z,16.60
2022-10-25T12:36:45.185Z,16.70
2022-10-25T12:39:21.649Z,16.70
2022-10-25T12:41:58.619Z,16.80
2022-10-25T12:44:37.262Z,16.80
2022-10-25T12:47:22.800Z,16.90
2022-10-25T12:50:07.735Z,16.90
2022-10-25T12:52:40.852Z,16.90
2022-10-25T12:55:38.209Z,16.90
2022-10-25T12:58:17.040Z,17.00
2022-10-25T13:00:55.562Z,17.00
2022-10-25T13:03:56.624Z,17.00
2022-10-25T13:06:45.203Z,17.00
2022-10-25T13:09:15.431Z,17.00
2022-10-25T13:12:01.275Z,17.00
2022-10-25T13:14:30.855Z,17.00
2022-10-25T13:17:16.491Z,16.90
2022-10-25T13:19:55.806Z,16.90
2022-10-25T13:22:35.698Z,16.90
2022-10-25T13:25:15.903Z,16.90
2022-10-25T13:28:10.618Z,16.90
2022-10-25T13:30:37.361Z,16.80
2022-10-25T13:33:19.212Z,16.80
2022-10-25T13:35:48.925Z,16.80
2022-10-25T13:38:27.447Z,16.90
2022-10-25T13:41:10.046Z,16.90
2022-10-25T13:43:53.661Z,17.00
2022-10-25T13:46:30.759Z,17.00
2022-10-25T13:48:58.252Z,17.10
2022-10-25T13:51:24.985Z,17.20
2022-10-25T13:53:53.587Z,17.30
2022-10-25T13:56:22.933Z,17.30
2022-10-25T13:58:54.390Z,17.30
2022-10-25T14:01:21.422Z,17.40
2022-10-25T14:04:03.426Z,17.40
2022-10-25T14:06:34.558Z,17.40
2022-10-25T14:09:09.293Z,17.50
2022-10-25T14:11:47.265Z,17.50
2022-10-25T14:14:28.267Z,17.50
2022-10-25T14:16:55.453Z,17.60
2022-10-25T14:19:26.932Z,17.60
2022-10-25T14:21:55.213Z,17.60
2022-10-25T14:24:22.520Z,17.60
2022-10-25T14:26:56.278Z,17.60
2022-10-25T14:29:25.546Z,17.70
2022-10-25T14:31:53.327Z,17.70
2022-10-25T14:34:30.014Z,17.70
2022-10-25T14:36:58.361Z,17.70
2022-10-25T14:39:28.035Z,17.70
2022-10-25T14:42:02.760Z,17.80
2022-10-25T14:44:31.936Z,17.80
2022-10-25T14:46:59.964Z,17.80
2022-10-25T14:49:27.469Z,17.80
2022-10-25T14:51:59.492Z,17.90
2022-10-25T14:54:36.596Z,17.90
2022-10-25T14:57:08.620Z,18.00
2022-10-25T14:59:43.946Z,18.00
2022-10-25T15:02:16.223Z,18.00
2022-10-25T15:04:46.797Z,18.00
2022-10-25T15:07:36.357Z,18.00
2022-10-25T15:12:36.216Z,18.00
2022-10-25T15:15:44.600Z,18.00
2022-10-25T15:18:34.781Z,18.00
2022-10-25T15:21:14.810Z,18.00
2022-10-25T15:23:43.409Z,17.90
2022-10-25T15:26:39.388Z,18.00
2022-10-25T15:29:06.356Z,18.00
2022-10-25T15:31:33.022Z,17.90
2022-10-25T15:34:04.539Z,17.90
2022-10-25T15:36:33.432Z,17.90
2022-10-25T15:39:18.214Z,17.90
2022-10-25T15:41:44.899Z,17.90
2022-10-25T15:44:11.513Z,17.90
2022-10-25T15:46:38.312Z,18.00
2022-10-25T15:49:09.574Z,18.00
2022-10-25T15:51:43.333Z,18.00
2022-10-25T15:54:18.439Z,18.00
2022-10-25T15:56:45.625Z,17.90
2022-10-25T15:59:13.432Z,17.90
2022-10-25T16:01:47.052Z,17.90
2022-10-25T16:04:18.517Z,17.80
2022-10-25T16:06:45.977Z,17.70
2022-10-25T16:09:12.702Z,17.60
2022-10-25T16:11:44.860Z,17.50
2022-10-25T16:14:23.409Z,17.50
2022-10-25T16:16:50.333Z,17.30
2022-10-25T16:19:19.150Z,17.30
2022-10-25T16:21:46.262Z,17.20
2022-10-25T16:24:13.590Z,17.20
2022-10-25T16:26:50.067Z,17.10
2022-10-25T16:29:21.946Z,17.00
2022-10-25T16:31:48.573Z,17.00
2022-10-25T16:34:17.281Z,16.90
2022-10-25T16:36:44.943Z,16.80
2022-10-25T16:39:12.008Z,16.70
2022-10-25T16:41:40.215Z,16.70
2022-10-25T16:44:06.934Z,16.60
2022-10-25T16:46:33.597Z,16.60
2022-10-25T16:49:02.058Z,16.50
2022-10-25T16:51:29.225Z,16.40
2022-10-25T16:53:57.184Z,16.30
2022-10-25T16:56:23.854Z,16.30
2022-10-25T16:58:50.641Z,16.20
2022-10-25T17:01:21.543Z,16.10
2022-10-25T17:03:52.441Z,16.10
2022-10-25T17:09:07.095Z,15.90
2022-10-25T17:11:33.698Z,15.90
2022-10-25T17:14:00.302Z,15.80
2022-10-25T17:16:29.020Z,15.70
2022-10-25T17:18:56.407Z,15.70
2022-10-25T17:21:23.601Z,15.60
2022-10-25T17:23:50.239Z,15.50
2022-10-25T17:26:16.931Z,15.40
2022-10-25T17:28:44.508Z,15.40
2022-10-25T17:31:13.158Z,15.30
2022-10-25T17:33:40.589Z,15.20
2022-10-25T17:36:10.569Z,15.20
2022-10-25T17:38:37.493Z,15.10
2022-10-25T17:41:04.518Z,15.00
2022-10-25T17:43:31.182Z,14.90
2022-10-25T17:46:03.074Z,14.80
2022-10-25T17:48:29.849Z,14.80
2022-10-25T17:51:05.158Z,14.70
2022-10-25T17:56:11.226Z,14.50
2022-10-25T17:58:37.973Z,14.50
2022-10-25T18:01:05.611Z,14.40
2022-10-25T18:03:32.920Z,14.30
2022-10-25T18:06:03.920Z,14.30
2022-10-25T18:08:30.603Z,14.20
2022-10-25T18:11:07.264Z,14.20
2022-10-25T18:13:33.982Z,14.10
2022-10-25T18:16:03.529Z,14.00
2022-10-25T18:18:30.742Z,14.00
2022-10-25T18:21:09.063Z,13.90
2022-10-25T18:23:36.383Z,13.80
2022-10-25T18:26:04.389Z,13.80
2022-10-25T18:28:35.613Z,13.70
2022-10-25T18:31:09.014Z,13.60
2022-10-25T18:33:37.706Z,13.50
2022-10-25T18:36:15.041Z,13.40
2022-10-25T18:38:42.198Z,13.40
2022-10-25T18:41:11.252Z,13.30
2022-10-25T18:43:37.926Z,13.30
2022-10-25T18:46:05.211Z,13.20
2022-10-25T18:48:31.972Z,13.10
2022-10-25T18:51:10.910Z,13.10
2022-10-25T18:53:40.888Z,13.00
2022-10-25T18:56:13.030Z,12.90
2022-10-25T18:58:41.069Z,12.90
2022-10-25T19:01:08.701Z,12.80
2022-10-25T19:03:36.345Z,12.70
2022-10-25T19:06:03.839Z,12.70
2022-10-25T19:08:30.529Z,12.60
2022-10-25T19:10:57.337Z,12.60
2022-10-25T19:13:23.988Z,12.50
2022-10-25T19:15:50.658Z,12.50
2022-10-25T19:18:17.367Z,12.40
2022-10-25T19:20:46.448Z,12.30
2022-10-25T19:23:13.320Z,12.20
2022-10-25T19:25:40.192Z,12.20
2022-10-25T19:28:07.323Z,12.10
2022-10-25T19:30:37.725Z,12.10
2022-10-25T19:33:05.441Z,12.00
2022-10-25T19:35:32.832Z,12.00
2022-10-25T19:37:59.518Z,11.90
2022-10-25T19:40:26.261Z,11.80
2022-10-25T19:42:53.461Z,11.80
2022-10-25T19:45:20.308Z,11.70
2022-10-25T19:47:47.333Z,11.70
2022-10-25T19:50:14.459Z,11.60
2022-10-25T19:52:41.246Z,11.50
2022-10-25T19:55:08.229Z,11.50
2022-10-25T19:57:35.548Z,11.50
2022-10-25T20:00:08.641Z,11.40
2022-10-25T20:02:38.529Z,11.30
2022-10-25T20:05:05.759Z,11.30
2022-10-25T20:07:32.445Z,11.20
2022-10-25T20:09:59.089Z,11.20
2022-10-25T20:12:25.764Z,11.10
2022-10-25T20:14:52.410Z,11.10
2022-10-25T20:17:19.034Z,11.10
2022-10-25T20:19:45.706Z,11.00
2022-10-25T20:22:12.391Z,11.00
2022-10-25T20:24:39.013Z,10.90
2022-10-25T20:27:06.624Z,10.90
2022-10-25T20:29:33.312Z,10.80
2022-10-25T20:31:59.947Z,10.80
2022-10-25T20:34:26.810Z,10.70
2022-10-25T20:36:53.870Z,10.70
2022-10-25T20:39:20.497Z,10.60
2022-10-25T20:41:47.256Z,10.60
2022-10-25T20:44:14.732Z,10.50
2022-10-25T20:46:41.532Z,10.50
2022-10-25T20:49:08.245Z,10.40
2022-10-25T20:51:35.241Z,10.40
2022-10-25T20:54:05.184Z,10.40
2022-10-25T20:56:31.972Z,10.40
2022-10-25T20:58:58.603Z,10.30
2022-10-25T21:01:25.414Z,10.30
2022-10-25T21:03:53.940Z,10.20
2022-10-25T21:06:20.645Z,10.20
2022-10-25T21:08:47.312Z,10.10
2022-10-25T21:11:14.194Z,10.10
2022-10-25T21:13:41.123Z,10.10
2022-10-25T21:16:10.586Z,10.00
2022-10-25T21:18:37.759Z,10.00
2022-10-25T21:21:07.275Z,9.90
2022-10-25T21:23:34.170Z,9.90
2022-10-25T21:26:02.951Z,9.80
2022-10-25T21:28:34.857Z,9.80
2022-10-25T21:31:07.042Z,9.70
2022-10-25T21:33:33.689Z,9.70
2022-10-25T21:36:05.523Z,9.70
2022-10-25T21:38:32.755Z,9.70
2022-10-25T21:41:17.305Z,9.60
2022-10-25T21:43:46.623Z,9.60
2022-10-25T21:46:14.848Z,9.50
2022-10-25T21:48:42.036Z,9.50
2022-10-25T21:51:08.707Z,9.50
2022-10-25T21:53:36.382Z,9.40
2022-10-25T21:56:18.463Z,9.40
2022-10-25T21:58:47.136Z,9.40
2022-10-25T22:01:20.216Z,9.40
2022-10-25T22:03:46.949Z,9.30
2022-10-25T22:06:15.880Z,9.30
2022-10-25T22:08:43.023Z,9.30
2022-10-25T22:11:15.829Z,9.20
2022-10-25T22:13:42.736Z,9.20
2022-10-25T22:16:19.272Z,9.20
2022-10-25T22:18:54.833Z,9.10
2022-10-25T22:21:21.878Z,9.10
2022-10-25T22:23:48.680Z,9.10
2022-10-25T22:26:17.396Z,9.00
2022-10-25T22:28:44.061Z,9.00
2022-10-25T22:31:15.803Z,9.00
2022-10-25T22:33:43.422Z,9.00
2022-10-25T22:36:14.249Z,9.00
2022-10-25T22:38:41.288Z,8.90
2022-10-25T22:41:11.193Z,8.90
2022-10-25T22:43:39.277Z,8.90
2022-10-25T22:46:10.538Z,8.90
2022-10-25T22:48:38.858Z,8.90
2022-10-25T22:51:06.280Z,8.90
2022-10-25T22:53:35.592Z,8.90
2022-10-25T22:56:05.277Z,8.80
2022-10-25T22:58:33.333Z,8.80
2022-10-25T23:01:06.048Z,8.80
2022-10-25T23:03:33.456Z,8.80
2022-10-25T23:06:03.415Z,8.80
2022-10-25T23:08:34.352Z,8.80
2022-10-25T23:11:05.779Z,8.80
2022-10-25T23:13:34.154Z,8.80
2022-10-25T23:16:02.222Z,8.80
2022-10-25T23:18:29.201Z,8.70
2022-10-25T23:20:57.625Z,8.70
2022-10-25T23:23:25.307Z,8.70
2022-10-25T23:25:52.997Z,8.70
2022-10-25T23:28:20.148Z,8.70
2022-10-25T23:30:46.864Z,8.70
2022-10-25T23:33:13.877Z,8.70
2022-10-25T23:35:41.850Z,8.60
2022-10-25T23:38:11.667Z,8.60
2022-10-25T23:40:38.731Z,8.70
2022-10-25T23:43:05.413Z,8.60
2022-10-25T23:45:32.239Z,8.60
2022-10-25T23:47:59.097Z,8.60
2022-10-25T23:50:25.686Z,8.60
2022-10-25T23:52:52.450Z,8.60
2022-10-25T23:55:19.126Z,8.60
2022-10-25T23:57:45.789Z,8.60
